»·PEaware :: JTL178 KASE-KTEX

JTL178 :: KASE-KTEX

FLIGHT INFORMATION

Flight Status: Arrived
Operator: Unknown
More flights by this operator :: More flights under this callsign
Pilot: Ethan S. (29221)
Aircraft: CANADAIR CL-600 CHALLENGER
(CL60)
More flights by this aircraft type
Origin: KASE Aspen-Pitkin Co/Sardy
United States
Destination: KTEX Telluride Regl
United States
More flights between these airports :: More routes between these airports
Route: LINDZ9 LINDZ SLOLM MTJ ETL
File this flight plan on PilotEdge
Remarks:
Altitude:
(Current/Filed)
22,000ft
Speed:
(Current/Filed)
350kts
Departed: 18-Jul-23 03:46 PM
Arrived: 18-Jul-23 04:11 PM
Distance/Time
Traveled:
90nm/0:24
Distance/Time
To Go:
Arrived

Flight Plot

Page will automatically refresh every two minutes.

Flight plan parsing failed; only flown route is shown


Map Options




Map Legend


Flown Route
Filed Route
Departure Airport
Arrival Airport
Navaid (VOR, NDB)
Fix

Horizontal Profiles

Position Reports

Time Latitude Longitude Heading Altitude Ground
Speed
18-Jul-23 15:19 39.222354 -106.866789 249 7755ft 0kts
18-Jul-23 15:20 39.222354 -106.866789 249 7755ft 0kts
18-Jul-23 15:21 39.222354 -106.866789 249 7755ft 0kts
18-Jul-23 15:22 39.222354 -106.866789 249 7755ft 0kts
18-Jul-23 15:23 39.222354 -106.866789 249 7755ft 0kts
18-Jul-23 15:24 39.222354 -106.866789 249 7755ft 0kts
18-Jul-23 15:25 39.222354 -106.866789 249 7755ft 0kts
18-Jul-23 15:26 39.222354 -106.866789 249 7755ft 0kts
18-Jul-23 15:27 39.222354 -106.866789 249 7755ft 0kts
18-Jul-23 15:28 39.222354 -106.866789 249 7755ft 0kts
18-Jul-23 15:29 39.222354 -106.866789 249 7755ft 0kts
18-Jul-23 15:30 39.222354 -106.866789 249 7755ft 0kts
18-Jul-23 15:31 39.222354 -106.866789 249 7755ft 0kts
18-Jul-23 15:32 39.222354 -106.866789 249 7755ft 0kts
18-Jul-23 15:33 39.222354 -106.866789 249 7755ft 0kts
18-Jul-23 15:34 39.222354 -106.866789 249 7755ft 0kts
18-Jul-23 15:35 39.222354 -106.866789 249 7755ft 0kts
18-Jul-23 15:36 39.222354 -106.866789 249 7755ft 0kts
18-Jul-23 15:37 39.222354 -106.866789 249 7755ft 0kts
18-Jul-23 15:38 39.222354 -106.866789 249 7755ft 0kts
18-Jul-23 15:39 39.222354 -106.866789 249 7755ft 0kts
18-Jul-23 15:40 39.222354 -106.866789 249 7755ft 0kts
18-Jul-23 15:41 39.222354 -106.866789 249 7755ft 0kts
18-Jul-23 15:42 39.220760 -106.866464 160 7767ft 12kts
18-Jul-23 15:43 39.217967 -106.865131 159 7788ft 11kts
18-Jul-23 15:44 39.214558 -106.863523 159 7809ft 20kts
18-Jul-23 15:45 39.214464 -106.864709 338 7809ft 79kts
18-Jul-23 15:46 39.264028 -106.877937 341 9780ft 237kts
18-Jul-23 15:47 39.293793 -106.949273 281 12854ft 272kts
18-Jul-23 15:48 39.314233 -107.057381 298 16466ft 339kts
18-Jul-23 15:49 39.377080 -107.153875 289 20622ft 359kts
18-Jul-23 15:50 39.364761 -107.282180 255 23499ft 392kts
18-Jul-23 15:51 39.335940 -107.429171 255 23560ft 430kts
18-Jul-23 15:52 39.304399 -107.578355 245 23506ft 430kts
18-Jul-23 15:53 39.205654 -107.658970 197 23526ft 442kts
18-Jul-23 15:54 39.086472 -107.700460 197 23556ft 440kts
18-Jul-23 15:55 38.967848 -107.741426 196 23556ft 439kts
18-Jul-23 15:56 38.848112 -107.782567 196 23534ft 440kts
18-Jul-23 15:57 38.729139 -107.823303 197 23499ft 441kts
18-Jul-23 15:58 38.610425 -107.863833 196 23508ft 440kts
18-Jul-23 15:59 38.493633 -107.912757 206 23539ft 438kts
18-Jul-23 16:00 38.390271 -107.988921 212 22351ft 406kts
18-Jul-23 16:01 38.298707 -108.059867 212 20038ft 369kts
18-Jul-23 16:02 38.213706 -108.125412 212 17761ft 342kts
18-Jul-23 16:03 38.135031 -108.185825 213 15811ft 315kts
18-Jul-23 16:04 38.061284 -108.223374 167 14197ft 282kts
18-Jul-23 16:05 38.014631 -108.150903 118 13185ft 267kts
18-Jul-23 16:06 37.987411 -108.071861 103 11750ft 203kts
18-Jul-23 16:07 37.975302 -108.011588 104 10769ft 166kts
18-Jul-23 16:08 37.963671 -107.955831 104 9750ft 160kts
18-Jul-23 16:09 37.952755 -107.903721 105 9055ft 74kts
18-Jul-23 16:10 37.953522 -107.901942 284 9065ft 11kts
18-Jul-23 16:11 37.954081 -107.902142 104 9064ft 0kts
18-Jul-23 16:12 37.954081 -107.902142 104 9064ft 0kts
18-Jul-23 16:13 37.954081 -107.902142 104 9064ft 0kts
18-Jul-23 16:14 37.954081 -107.902142 104 9064ft 0kts
18-Jul-23 16:15 37.954081 -107.902142 104 9064ft 0kts
18-Jul-23 16:16 37.954081 -107.902142 104 9064ft 0kts
18-Jul-23 16:17 37.954081 -107.902142 104 9064ft 0kts

Navigation Log

Ident Type
Flight plan parsing failed, navigation log unavailable